Time;durP1;ratioP1;P1;durP2;ratioP2;P2;SDS_P1;SDS_P2;PMS_P1;PMS_P2;Temp;Humidity;BMP_temperature;BMP_pressure;BME280_temperature;BME280_humidity;BME280_pressure;Samples;Min_cycle;Max_cycle;Signal;HPM_P1;HPM_P2
2022/06/29 00:00:48;;;;;;;5.47;3.05;;;;;;;18.19;64.40;101419.75;4893630;29;20607;-70
2022/06/29 00:03:14;;;;;;;6.72;2.67;;;;;;;18.12;65.09;101416.41;4881037;29;20120;-71
2022/06/29 00:05:39;;;;;;;6.30;2.50;;;;;;;18.14;64.77;101416.94;4880952;29;20052;-70
2022/06/29 00:08:05;;;;;;;6.00;3.00;;;;;;;18.14;65.20;101411.47;4911667;29;20028;-70
2022/06/29 00:10:30;;;;;;;6.53;2.72;;;;;;;18.10;65.43;101420.47;4898429;29;20100;-70
2022/06/29 00:12:55;;;;;;;6.00;2.78;;;;;;;18.04;64.69;101405.91;4918404;29;20028;-70
2022/06/29 00:15:21;;;;;;;5.85;3.08;;;;;;;17.98;65.06;101416.03;4918522;29;20036;-70
2022/06/29 00:17:46;;;;;;;4.72;2.97;;;;;;;18.01;65.27;101409.16;4893769;29;20472;-71
2022/06/29 00:20:12;;;;;;;4.80;3.25;;;;;;;17.98;65.53;101410.53;4917929;29;20480;-71
2022/06/29 00:22:39;;;;;;;6.15;2.90;;;;;;;17.99;65.56;101405.88;4918206;29;20451;-70
2022/06/29 00:25:05;;;;;;;5.43;2.83;;;;;;;17.98;66.19;101401.47;4918099;29;20095;-70
2022/06/29 00:27:31;;;;;;;6.22;3.17;;;;;;;17.91;65.56;101401.72;4909456;29;20468;-70
2022/06/29 00:29:56;;;;;;;6.40;3.10;;;;;;;17.93;65.83;101402.25;4917867;29;20126;-71
2022/06/29 00:32:21;;;;;;;6.47;3.10;;;;;;;17.85;65.96;101398.06;4917527;29;20143;-71
2022/06/29 00:34:47;;;;;;;5.40;3.05;;;;;;;17.81;66.62;101398.84;4918263;29;20480;-69
2022/06/29 00:37:13;;;;;;;5.55;2.70;;;;;;;17.78;66.00;101396.63;4909059;29;20087;-70
2022/06/29 00:39:38;;;;;;;6.07;2.80;;;;;;;17.78;67.09;101397.44;4917883;29;20060;-70
2022/06/29 00:42:04;;;;;;;6.35;2.88;;;;;;;17.79;66.41;101399.09;4917893;29;20032;-70
2022/06/29 00:44:30;;;;;;;4.22;3.28;;;;;;;17.73;66.52;101397.41;4917781;29;20513;-71
2022/06/29 00:46:58;;;;;;;6.22;3.13;;;;;;;17.62;66.38;101393.75;4907934;29;20071;-71
2022/06/29 00:49:26;;;;;;;11.32;3.00;;;;;;;17.57;67.58;101393.69;4900513;29;20032;-70
2022/06/29 00:52:01;;;;;;;6.80;3.35;;;;;;;17.56;66.88;101380.28;4917502;29;20544;-70
2022/06/29 00:54:31;;;;;;;8.13;3.15;;;;;;;17.50;67.15;101388.44;4917381;29;20482;-70
2022/06/29 00:56:58;;;;;;;6.90;3.20;;;;;;;17.47;67.81;101386.22;4890472;29;20119;-70
2022/06/29 00:59:24;;;;;;;9.00;3.33;;;;;;;17.44;67.43;101378.53;4917604;29;20032;-70
2022/06/29 01:01:49;;;;;;;6.32;3.30;;;;;;;17.43;68.34;101379.59;4904340;29;20053;-70
2022/06/29 01:04:14;;;;;;;9.45;3.85;;;;;;;17.39;68.11;101375.72;4881645;29;20039;-71
2022/06/29 01:06:40;;;;;;;4.80;3.00;;;;;;;17.30;68.67;101366.34;4897600;29;20040;-71
2022/06/29 01:09:06;;;;;;;7.00;3.40;;;;;;;17.30;67.63;101377.28;4896810;29;20464;-70
2022/06/29 01:11:33;;;;;;;6.57;3.10;;;;;;;17.25;68.38;101363.56;4897777;29;20037;-70
2022/06/29 01:13:59;;;;;;;6.05;3.20;;;;;;;17.28;69.03;101377.53;4898064;29;20531;-69
2022/06/29 01:16:26;;;;;;;4.65;3.08;;;;;;;17.23;68.67;101376.69;4897032;29;20511;-70
2022/06/29 01:18:51;;;;;;;5.75;3.53;;;;;;;17.17;68.47;101373.06;4877740;29;20036;-70
2022/06/29 01:21:19;;;;;;;5.75;3.17;;;;;;;17.21;68.70;101374.19;4877828;29;20040;-71
2022/06/29 01:23:45;;;;;;;8.07;3.53;;;;;;;17.13;69.47;101372.72;4879641;29;20116;-70
2022/06/29 01:26:11;;;;;;;6.32;3.50;;;;;;;17.06;69.61;101371.28;4881077;29;20124;-70
2022/06/29 01:28:39;;;;;;;6.75;3.33;;;;;;;17.07;69.37;101375.66;4905111;29;20071;-70
2022/06/29 01:31:04;;;;;;;7.53;3.75;;;;;;;17.00;69.79;101367.66;4917063;29;20063;-71
2022/06/29 01:33:29;;;;;;;8.57;3.40;;;;;;;17.02;70.06;101365.50;4916740;29;20060;-70
2022/06/29 01:35:54;;;;;;;6.20;3.20;;;;;;;17.03;69.72;101360.84;4897268;29;20114;-70
2022/06/29 01:38:20;;;;;;;8.50;3.55;;;;;;;16.99;69.91;101361.34;4896793;29;20476;-70
2022/06/29 01:40:45;;;;;;;8.77;3.40;;;;;;;16.90;70.05;101364.81;4897981;29;20036;-70
2022/06/29 01:43:11;;;;;;;5.93;3.40;;;;;;;16.94;70.90;101363.19;4897717;29;20138;-71
2022/06/29 01:45:36;;;;;;;11.60;4.05;;;;;;;16.87;70.53;101366.13;4897307;29;20052;-70
2022/06/29 01:48:02;;;;;;;9.32;3.60;;;;;;;16.86;70.85;101355.44;4896441;29;20064;-71
2022/06/29 01:50:28;;;;;;;5.70;3.60;;;;;;;16.75;70.55;101352.56;4897587;29;20029;-71
2022/06/29 01:52:53;;;;;;;9.15;4.00;;;;;;;16.74;71.23;101353.66;4897993;29;20088;-70
2022/06/29 01:55:18;;;;;;;9.05;3.58;;;;;;;16.74;70.70;101347.34;4897512;29;20469;-71
2022/06/29 01:57:44;;;;;;;6.20;3.83;;;;;;;16.75;71.27;101349.84;4896050;29;20107;-71
2022/06/29 02:00:10;;;;;;;16.08;3.88;;;;;;;16.68;70.73;101357.38;4897651;29;20468;-71
2022/06/29 02:02:35;;;;;;;7.28;3.60;;;;;;;16.63;71.47;101344.47;4893821;29;20052;-71
2022/06/29 02:05:00;;;;;;;8.65;3.40;;;;;;;16.64;71.67;101337.94;4897235;29;20048;-71
2022/06/29 02:07:26;;;;;;;10.93;4.05;;;;;;;16.61;71.96;101334.91;4895921;29;20112;-71
2022/06/29 02:09:51;;;;;;;6.60;3.95;;;;;;;16.62;72.06;101340.13;4897345;29;20084;-71
2022/06/29 02:12:16;;;;;;;7.13;3.80;;;;;;;16.57;71.60;101350.16;4897105;29;20060;-70
2022/06/29 02:14:42;;;;;;;8.00;3.42;;;;;;;16.55;72.48;101344.13;4897424;29;20127;-71
2022/06/29 02:17:07;;;;;;;9.40;4.10;;;;;;;16.55;72.31;101344.94;4901123;29;20024;-71
2022/06/29 02:19:32;;;;;;;6.57;3.83;;;;;;;16.57;72.61;101347.41;4898278;29;20032;-71
2022/06/29 02:21:57;;;;;;;5.85;4.13;;;;;;;16.50;72.42;101352.22;4899324;29;20029;-71
2022/06/29 02:24:43;;;;;;;9.73;4.10;;;;;;;16.53;72.15;101349.00;4907213;29;20119;-71
2022/06/29 02:27:09;;;;;;;4.93;3.80;;;;;;;16.44;72.55;101337.66;4899920;29;20037;-71
2022/06/29 02:29:40;;;;;;;6.03;3.72;;;;;;;16.45;73.66;101342.06;4883450;29;20115;-76
2022/06/29 02:35:05;;;;;;;7.20;3.88;;;;;;;16.42;73.13;101343.38;4901145;29;20494;-72
2022/06/29 02:37:41;;;;;;;9.20;4.45;;;;;;;16.44;73.68;101340.41;4881717;29;20092;-71
2022/06/29 02:40:10;;;;;;;5.22;3.95;;;;;;;16.41;74.09;101336.28;4883574;29;20099;-71
2022/06/29 02:42:42;;;;;;;7.57;4.45;;;;;;;16.39;73.24;101334.88;4883924;29;20032;-71
2022/06/29 02:45:16;;;;;;;11.70;4.38;;;;;;;16.43;73.20;101336.03;4883648;29;20031;-71
2022/06/29 02:47:50;;;;;;;6.97;4.82;;;;;;;16.44;73.70;101334.94;4881632;29;20092;-71
2022/06/29 02:50:21;;;;;;;6.47;4.63;;;;;;;16.44;73.18;101324.00;4883917;29;20063;-71
2022/06/29 02:52:49;;;;;;;8.10;4.55;;;;;;;16.40;72.76;101326.44;4883638;29;20141;-71
2022/06/29 02:55:16;;;;;;;6.18;4.47;;;;;;;16.38;73.43;101328.59;4883871;29;20111;-71
2022/06/29 02:57:47;;;;;;;6.45;4.60;;;;;;;16.36;72.98;101314.34;4878927;29;20476;-71
2022/06/29 03:00:21;;;;;;;8.40;4.60;;;;;;;16.32;73.11;101321.41;4880411;29;20044;-71
2022/06/29 03:02:55;;;;;;;8.98;4.60;;;;;;;16.33;73.10;101317.59;4888946;29;20192;-71
2022/06/29 03:05:25;;;;;;;8.60;4.80;;;;;;;16.37;73.89;101318.75;4898686;29;20444;-71
2022/06/29 03:07:52;;;;;;;9.77;4.90;;;;;;;16.29;73.48;101313.72;4897315;29;20036;-71
2022/06/29 03:10:17;;;;;;;7.53;5.00;;;;;;;16.32;73.90;101304.19;4883522;29;20025;-71
2022/06/29 03:12:43;;;;;;;8.40;4.88;;;;;;;16.30;74.10;101312.63;4883178;29;20035;-71
2022/06/29 03:15:08;;;;;;;9.55;5.00;;;;;;;16.29;73.67;101309.09;4883454;29;20020;-71
2022/06/29 03:17:34;;;;;;;7.93;5.40;;;;;;;16.23;73.82;101309.25;4881518;29;20028;-71
2022/06/29 03:20:01;;;;;;;8.73;4.90;;;;;;;16.24;73.80;101306.28;4899207;29;20080;-72
2022/06/29 03:22:27;;;;;;;9.82;5.45;;;;;;;16.25;74.06;101304.38;4883402;29;20425;-71
2022/06/29 03:24:52;;;;;;;8.98;5.13;;;;;;;16.17;74.54;101297.47;4899006;29;20033;-71
2022/06/29 03:27:18;;;;;;;10.23;5.30;;;;;;;16.22;74.41;101299.44;4882186;29;20080;-71
2022/06/29 03:29:43;;;;;;;8.27;5.07;;;;;;;16.22;74.56;101302.16;4900043;29;20048;-71
2022/06/29 03:32:08;;;;;;;6.85;5.00;;;;;;;16.25;74.30;101301.66;4899985;29;20032;-71
2022/06/29 03:34:34;;;;;;;8.20;5.15;;;;;;;16.23;74.53;101303.78;4898729;29;20032;-71
2022/06/29 03:36:59;;;;;;;11.63;5.43;;;;;;;16.25;74.29;101290.72;4898921;29;20048;-71
2022/06/29 03:39:24;;;;;;;8.52;5.30;;;;;;;16.22;74.83;101293.97;4899708;29;20032;-71
2022/06/29 03:41:50;;;;;;;8.32;5.25;;;;;;;16.21;74.34;101289.56;4896487;29;20064;-71
2022/06/29 03:44:15;;;;;;;6.18;5.15;;;;;;;16.23;74.31;101281.94;4880986;29;20060;-73
2022/06/29 03:46:40;;;;;;;8.65;5.00;;;;;;;16.24;74.65;101286.34;4883725;29;20338;-71
2022/06/29 03:49:06;;;;;;;9.38;5.20;;;;;;;16.20;74.76;101287.91;4899946;29;20460;-72
2022/06/29 03:51:31;;;;;;;9.27;5.40;;;;;;;16.14;75.50;101284.31;4899699;29;20052;-71
2022/06/29 03:53:56;;;;;;;8.50;5.25;;;;;;;16.12;75.42;101279.09;4899996;29;20036;-71
2022/06/29 03:56:22;;;;;;;8.93;5.10;;;;;;;16.16;75.83;101279.41;4898417;29;20033;-71
2022/06/29 03:58:47;;;;;;;9.13;5.55;;;;;;;16.11;75.68;101282.91;4899526;29;20036;-70
2022/06/29 04:01:12;;;;;;;12.85;5.78;;;;;;;16.15;75.58;101282.41;4889883;29;20056;-71
2022/06/29 04:03:38;;;;;;;11.75;5.22;;;;;;;16.12;75.49;101273.63;4897715;29;20429;-71
2022/06/29 04:06:03;;;;;;;9.05;5.30;;;;;;;16.15;75.66;101271.47;4897416;29;20032;-71
2022/06/29 04:08:28;;;;;;;7.60;5.45;;;;;;;16.13;76.69;101274.47;4898464;29;20032;-71
2022/06/29 04:10:54;;;;;;;9.35;5.60;;;;;;;16.15;77.01;101257.81;4898405;29;20385;-71
2022/06/29 04:13:19;;;;;;;9.07;5.60;;;;;;;16.18;77.10;101262.78;4898611;29;20096;-71
2022/06/29 04:15:45;;;;;;;9.68;6.07;;;;;;;16.17;77.46;101267.41;4897546;29;20029;-71
2022/06/29 04:18:10;;;;;;;10.45;5.53;;;;;;;16.18;77.79;101276.44;4898686;29;20119;-71
2022/06/29 04:23:19;;;;;;;10.13;5.78;;;;;;;16.23;78.39;101263.69;4880450;29;20544;-71
2022/06/29 04:25:44;;;;;;;11.93;5.47;;;;;;;16.30;77.42;101271.66;4880357;29;20029;-71
2022/06/29 04:28:10;;;;;;;9.93;5.55;;;;;;;16.32;77.77;101264.06;4881855;29;20076;-71
2022/06/29 04:30:35;;;;;;;11.85;5.95;;;;;;;16.39;77.19;101270.16;4892494;29;20052;-71
2022/06/29 04:33:00;;;;;;;8.27;5.90;;;;;;;16.39;76.44;101270.16;4895275;29;20157;-71
2022/06/29 04:35:26;;;;;;;11.43;5.95;;;;;;;16.50;76.12;101264.81;4898444;29;20071;-71
2022/06/29 04:37:51;;;;;;;7.47;5.65;;;;;;;16.50;76.90;101262.09;4898391;29;20052;-71
2022/06/29 04:40:16;;;;;;;10.88;6.00;;;;;;;16.54;76.51;101264.06;4893592;29;20037;-71
2022/06/29 04:42:42;;;;;;;11.65;6.28;;;;;;;16.50;75.45;101268.38;4898826;29;20040;-71
2022/06/29 04:46:19;;;;;;;11.20;5.85;;;;;;;16.56;76.37;101264.63;4892284;29;20384;-71
2022/06/29 04:47:53;;;;;;;7.75;5.53;;;;;;;16.56;75.38;101267.38;4890273;29;20400;-71
2022/06/29 04:50:18;;;;;;;10.77;5.72;;;;;;;16.56;75.20;101267.38;4898762;29;20031;-71
2022/06/29 04:52:43;;;;;;;12.20;5.85;;;;;;;16.59;76.25;101266.00;4897874;29;20025;-71
2022/06/29 04:55:09;;;;;;;9.88;6.20;;;;;;;16.72;76.43;101268.34;4903653;29;20058;-71
2022/06/29 04:57:35;;;;;;;10.63;6.07;;;;;;;16.68;75.65;101256.28;4917171;29;20042;-71
2022/06/29 05:00:00;;;;;;;10.93;6.28;;;;;;;16.72;76.30;101267.53;4909911;29;20104;-71
2022/06/29 05:02:25;;;;;;;10.80;6.32;;;;;;;16.75;75.38;101267.03;4886666;29;20061;-71
2022/06/29 05:04:51;;;;;;;9.50;6.43;;;;;;;16.81;76.13;101258.63;4884859;29;20446;-71
2022/06/29 05:07:16;;;;;;;8.18;6.38;;;;;;;16.91;76.54;101259.84;4897651;29;20035;-71
2022/06/29 05:09:42;;;;;;;11.35;6.43;;;;;;;16.96;75.69;101257.16;4897701;29;20028;-71
2022/06/29 05:12:07;;;;;;;11.98;6.30;;;;;;;17.00;75.69;101266.50;4897158;29;20089;-71
2022/06/29 05:14:32;;;;;;;8.15;5.93;;;;;;;17.06;74.71;101254.53;4887223;29;20472;-71
2022/06/29 05:16:58;;;;;;;9.52;6.07;;;;;;;17.15;75.69;101244.78;4896290;29;20029;-71
2022/06/29 05:19:23;;;;;;;12.10;6.07;;;;;;;17.20;76.12;101251.38;4898029;29;20416;-71
2022/06/29 05:21:48;;;;;;;9.18;5.55;;;;;;;17.30;75.27;101248.72;4897096;29;20028;-71
2022/06/29 05:24:13;;;;;;;9.57;5.60;;;;;;;17.37;74.06;101252.06;4885532;29;20048;-71
2022/06/29 05:26:39;;;;;;;7.57;5.15;;;;;;;17.43;74.23;101253.75;4897799;29;20072;-71
2022/06/29 05:29:05;;;;;;;8.38;4.82;;;;;;;17.48;73.22;101251.09;4895387;29;20057;-71
2022/06/29 05:31:31;;;;;;;11.40;5.60;;;;;;;17.50;74.48;101239.88;4897922;29;20086;-71
2022/06/29 05:33:56;;;;;;;7.93;5.45;;;;;;;17.51;74.35;101238.78;4892607;29;20032;-71
2022/06/29 05:36:21;;;;;;;6.50;4.85;;;;;;;17.64;73.80;101235.59;4897023;29;20047;-71
2022/06/29 05:38:47;;;;;;;11.65;5.05;;;;;;;17.65;73.49;101241.91;4892229;29;20150;-71
2022/06/29 05:41:12;;;;;;;9.55;5.32;;;;;;;17.75;73.28;101241.94;4914831;29;20481;-71
2022/06/29 05:43:37;;;;;;;12.77;5.22;;;;;;;17.80;73.46;101241.16;4884643;29;20036;-71
2022/06/29 05:46:03;;;;;;;9.52;5.03;;;;;;;17.91;73.15;101251.13;4879206;29;20384;-71
2022/06/29 05:48:28;;;;;;;9.35;5.47;;;;;;;17.93;72.81;101248.13;4893446;29;20119;-71
2022/06/29 05:50:54;;;;;;;9.38;4.97;;;;;;;18.02;72.20;101241.06;4901177;29;20036;-71
2022/06/29 05:53:19;;;;;;;11.48;4.90;;;;;;;18.05;70.76;101241.34;4916424;29;20077;-71
2022/06/29 05:55:46;;;;;;;10.57;4.75;;;;;;;18.10;71.75;101243.31;4894729;29;20040;-71
2022/06/29 05:58:15;;;;;;;12.15;5.13;;;;;;;18.20;71.68;101237.03;4896962;29;20033;-71
2022/06/29 06:00:40;;;;;;;9.43;4.40;;;;;;;18.28;71.42;101233.78;4886336;29;20039;-71
2022/06/29 06:03:06;;;;;;;8.25;4.80;;;;;;;18.34;70.76;101237.38;4895468;29;20033;-71
2022/06/29 06:05:37;;;;;;;6.65;4.32;;;;;;;18.41;71.31;101240.69;4875631;29;20164;-71
2022/06/29 06:08:04;;;;;;;8.10;4.80;;;;;;;18.47;71.46;101252.50;4895715;29;20040;-71
2022/06/29 06:10:32;;;;;;;6.95;3.97;;;;;;;18.50;70.79;101252.78;4888562;29;20123;-71
2022/06/29 06:13:05;;;;;;;7.45;4.07;;;;;;;18.64;69.73;101246.78;4899065;29;20032;-74
2022/06/29 06:15:32;;;;;;;8.18;4.45;;;;;;;18.68;69.19;101248.72;4899640;29;20056;-71
2022/06/29 06:17:57;;;;;;;8.85;4.45;;;;;;;18.74;69.23;101241.34;4897269;29;20433;-71
2022/06/29 06:20:23;;;;;;;10.43;4.53;;;;;;;18.74;68.72;101242.16;4905547;29;20033;-70
2022/06/29 06:22:48;;;;;;;13.85;4.40;;;;;;;18.83;68.31;101250.69;4899394;29;20032;-70
2022/06/29 06:25:13;;;;;;;6.95;4.40;;;;;;;18.82;69.63;101249.03;4897540;29;20056;-70
2022/06/29 06:27:38;;;;;;;9.10;4.20;;;;;;;18.92;68.83;101240.84;4896186;29;20040;-71
2022/06/29 06:30:04;;;;;;;6.95;3.80;;;;;;;18.99;68.31;101245.25;4903467;29;20062;-70
2022/06/29 06:32:30;;;;;;;14.15;3.70;;;;;;;19.02;67.96;101247.44;4904503;29;20495;-70
2022/06/29 06:34:55;;;;;;;8.77;3.72;;;;;;;19.11;67.96;101240.31;4896437;29;20093;-70
2022/06/29 06:37:20;;;;;;;7.13;3.83;;;;;;;19.19;67.49;101244.44;4894358;29;20464;-70
2022/06/29 06:41:21;;;;;;;7.45;3.60;;;;;;;19.23;65.66;101243.63;4896818;29;20089;-71
2022/06/29 06:42:31;;;;;;;6.75;2.80;;;;;;;19.27;66.64;101243.91;4895832;29;20051;-71
2022/06/29 06:44:56;;;;;;;8.60;3.50;;;;;;;19.38;66.37;101236.50;4896213;29;20119;-71
2022/06/29 06:47:21;;;;;;;6.18;3.33;;;;;;;19.41;65.85;101241.44;4894936;29;20055;-71
2022/06/29 06:49:46;;;;;;;8.88;3.08;;;;;;;19.53;65.37;101243.91;4897001;29;20025;-71
2022/06/29 06:52:13;;;;;;;6.55;3.25;;;;;;;19.60;65.88;101242.53;4896500;29;20040;-71
2022/06/29 06:54:39;;;;;;;10.80;2.95;;;;;;;19.66;65.46;101243.34;4896690;29;20460;-71
2022/06/29 06:57:04;;;;;;;5.57;2.75;;;;;;;19.69;64.14;101241.94;4896400;29;20064;-71
2022/06/29 06:59:29;;;;;;;8.38;2.60;;;;;;;19.72;63.75;101238.69;4909708;29;20035;-71
2022/06/29 07:01:54;;;;;;;5.68;2.45;;;;;;;19.80;63.48;101244.44;4893446;29;20415;-71
2022/06/29 07:04:20;;;;;;;6.35;2.40;;;;;;;19.88;62.79;101243.03;4896783;29;20119;-70
2022/06/29 07:06:45;;;;;;;5.03;2.40;;;;;;;19.94;61.60;101241.97;4893706;29;20093;-70
2022/06/29 07:09:12;;;;;;;6.47;2.30;;;;;;;20.01;61.59;101238.91;4895084;29;20039;-70
2022/06/29 07:11:37;;;;;;;6.50;2.20;;;;;;;20.05;61.78;101248.25;4900352;29;20092;-70
2022/06/29 07:14:02;;;;;;;7.75;2.47;;;;;;;20.16;61.32;101241.59;4883407;29;20033;-70
2022/06/29 07:16:29;;;;;;;7.63;2.40;;;;;;;20.25;60.72;101236.34;4899633;29;20037;-70
2022/06/29 07:18:55;;;;;;;6.20;2.60;;;;;;;20.30;58.70;101239.06;4919142;29;20032;-70
2022/06/29 07:21:21;;;;;;;12.38;2.38;;;;;;;20.37;59.94;101238.78;4883731;29;20043;-71
2022/06/29 07:23:46;;;;;;;7.50;2.17;;;;;;;20.48;60.14;101237.63;4899097;29;20391;-71
2022/06/29 07:26:12;;;;;;;5.50;2.10;;;;;;;20.58;58.20;101245.00;4914264;29;20499;-71
2022/06/29 07:28:39;;;;;;;9.77;2.10;;;;;;;20.66;59.07;101241.69;4899105;29;20043;-71
2022/06/29 07:31:05;;;;;;;4.53;2.53;;;;;;;20.71;58.51;101238.06;4903487;29;20057;-71
2022/06/29 07:33:30;;;;;;;7.50;2.30;;;;;;;20.77;57.10;101236.13;4900081;29;20036;-71
2022/06/29 07:35:55;;;;;;;5.68;2.42;;;;;;;20.82;58.81;101236.91;4900774;29;20084;-71
2022/06/29 07:38:20;;;;;;;6.22;2.28;;;;;;;20.92;55.74;101236.00;4878635;29;20045;-71
2022/06/29 07:40:46;;;;;;;3.88;2.00;;;;;;;20.92;57.29;101237.97;4896316;29;20036;-71
2022/06/29 07:43:11;;;;;;;6.13;2.20;;;;;;;20.92;56.52;101230.50;4899930;29;20040;-71
2022/06/29 07:45:36;;;;;;;5.93;2.45;;;;;;;20.99;58.23;101231.03;4899074;29;20028;-71
2022/06/29 07:48:02;;;;;;;5.15;2.20;;;;;;;21.05;57.42;101221.63;4907428;29;20125;-71
2022/06/29 07:50:28;;;;;;;5.60;1.98;;;;;;;21.17;57.14;101228.69;4898386;29;20116;-71
2022/06/29 07:52:53;;;;;;;5.53;1.88;;;;;;;21.16;56.66;101221.53;4899637;29;20116;-70
2022/06/29 07:55:19;;;;;;;5.20;1.80;;;;;;;21.28;56.37;101224.75;4899208;29;20043;-71
2022/06/29 07:57:44;;;;;;;5.97;1.90;;;;;;;21.29;56.74;101220.06;4898331;29;20036;-71
2022/06/29 08:00:10;;;;;;;5.13;1.90;;;;;;;21.41;56.39;101224.09;4898445;29;20134;-71
2022/06/29 08:02:36;;;;;;;4.93;1.73;;;;;;;21.49;56.39;101227.31;4877870;29;20382;-71
2022/06/29 08:05:01;;;;;;;6.05;1.80;;;;;;;21.59;55.05;101214.31;4895495;29;20520;-70
2022/06/29 08:07:28;;;;;;;4.05;1.60;;;;;;;21.56;54.02;101214.06;4899685;29;20028;-70
2022/06/29 08:09:53;;;;;;;3.78;1.45;;;;;;;21.67;54.61;101220.31;4896126;29;20057;-72
2022/06/29 08:12:19;;;;;;;4.05;1.88;;;;;;;21.68;55.19;101217.25;4898272;29;20500;-72
2022/06/29 08:14:44;;;;;;;4.03;1.65;;;;;;;21.79;55.11;101211.66;4898588;29;20032;-72
2022/06/29 08:17:10;;;;;;;7.63;1.88;;;;;;;21.81;54.81;101209.41;4894822;29;20032;-70
2022/06/29 08:19:35;;;;;;;7.18;1.95;;;;;;;21.85;53.83;101216.78;4902937;29;20067;-71
2022/06/29 08:22:00;;;;;;;4.10;1.70;;;;;;;21.87;53.66;101213.75;4897711;29;20031;-70
2022/06/29 08:24:27;;;;;;;2.95;1.80;;;;;;;22.03;54.29;101217.16;4898298;29;20116;-75
2022/06/29 08:26:53;;;;;;;3.88;1.58;;;;;;;22.07;52.43;101216.28;4882320;29;20036;-70
2022/06/29 08:29:18;;;;;;;4.38;1.95;;;;;;;22.06;51.76;101211.88;4897104;29;20060;-71
2022/06/29 08:31:43;;;;;;;5.63;1.70;;;;;;;22.06;53.27;101211.06;4898978;29;20115;-71
2022/06/29 08:34:10;;;;;;;3.15;1.42;;;;;;;22.11;54.25;101214.56;4899217;29;20037;-69
2022/06/29 08:36:35;;;;;;;6.03;1.70;;;;;;;22.21;52.28;101212.78;4898301;29;20075;-72
2022/06/29 08:39:01;;;;;;;5.80;1.75;;;;;;;22.16;51.67;101202.63;4897630;29;20056;-73
2022/06/29 08:41:29;;;;;;;3.50;1.50;;;;;;;22.29;52.86;101206.63;4916901;29;20036;-72
2022/06/29 08:43:58;;;;;;;5.03;1.60;;;;;;;22.38;50.48;101207.63;4916506;29;20062;-69
2022/06/29 08:46:23;;;;;;;4.40;1.70;;;;;;;22.37;51.50;101205.19;4917830;29;20062;-73
2022/06/29 08:48:49;;;;;;;5.15;1.70;;;;;;;22.36;52.26;101212.63;4897846;29;20461;-71
2022/06/29 08:51:18;;;;;;;6.43;1.52;;;;;;;22.30;51.93;101202.75;4913174;29;20036;-70
2022/06/29 08:53:45;;;;;;;6.90;1.50;;;;;;;22.34;51.20;101211.28;4917490;29;20043;-71
2022/06/29 08:56:12;;;;;;;5.60;1.60;;;;;;;22.30;51.51;101206.34;4917657;29;20042;-71
2022/06/29 08:58:40;;;;;;;2.65;1.55;;;;;;;22.39;50.47;101202.94;4899503;29;20143;-74
2022/06/29 09:01:05;;;;;;;5.57;1.88;;;;;;;22.40;50.39;101199.88;4904879;29;21941;-75
2022/06/29 09:03:30;;;;;;;3.63;1.75;;;;;;;22.42;51.99;101203.19;4895572;29;20038;-66
2022/06/29 09:06:01;;;;;;;5.15;1.60;;;;;;;22.48;50.73;101204.75;4891147;29;20039;-70
2022/06/29 09:08:26;;;;;;;4.40;1.50;;;;;;;22.53;50.85;101203.03;4897397;29;20075;-74
2022/06/29 09:10:51;;;;;;;3.95;1.33;;;;;;;22.65;51.90;101200.66;4901447;29;20052;-70
2022/06/29 09:13:24;;;;;;;4.32;1.60;;;;;;;22.78;49.68;101204.59;4898473;29;20033;-71
2022/06/29 09:15:57;;;;;;;2.97;1.40;;;;;;;22.87;51.32;101207.50;4896364;29;20544;-71
2022/06/29 09:18:30;;;;;;;3.65;1.58;;;;;;;22.87;50.16;101210.25;4898092;29;20044;-69
2022/06/29 09:20:59;;;;;;;2.33;1.70;;;;;;;22.99;51.45;101196.81;4904249;29;20028;-69
2022/06/29 09:23:25;;;;;;;4.38;1.48;;;;;;;23.04;51.04;101202.25;4898381;29;20037;-72
2022/06/29 09:25:52;;;;;;;4.35;1.60;;;;;;;23.11;51.11;101205.47;4897840;29;20071;-71
2022/06/29 09:28:23;;;;;;;3.88;1.48;;;;;;;23.15;47.84;101203.75;4898515;29;20040;-70
2022/06/29 09:30:49;;;;;;;7.45;1.42;;;;;;;23.20;47.04;101202.03;4880328;29;20132;-69
2022/06/29 09:33:14;;;;;;;4.30;1.08;;;;;;;23.28;47.03;101193.88;4879343;29;20414;-71
2022/06/29 09:35:41;;;;;;;2.00;1.08;;;;;;;23.34;47.67;101198.19;4879439;29;20028;-71
2022/06/29 09:38:23;;;;;;;5.85;1.60;;;;;;;23.44;48.33;101193.63;4879196;29;20029;-70
2022/06/29 09:40:58;;;;;;;4.00;1.48;;;;;;;23.50;49.00;101198.72;4882210;29;20064;-69
2022/06/29 09:43:23;;;;;;;3.13;1.23;;;;;;;23.68;49.43;101201.72;4875845;29;20374;-70
2022/06/29 09:45:51;;;;;;;2.88;1.10;;;;;;;23.70;47.04;101199.47;4883111;29;20043;-71
2022/06/29 09:48:20;;;;;;;2.55;1.20;;;;;;;23.71;46.89;101198.34;4897649;29;20131;-73
2022/06/29 09:50:46;;;;;;;5.47;1.38;;;;;;;23.76;45.95;101195.47;4866947;29;20088;-67
2022/06/29 09:53:12;;;;;;;1.23;1.10;;;;;;;23.77;46.07;101199.91;4860493;29;20591;-72
2022/06/29 09:55:38;;;;;;;4.90;1.30;;;;;;;23.78;45.26;101197.94;4892386;29;20051;-74
2022/06/29 09:58:04;;;;;;;3.05;1.20;;;;;;;23.77;46.63;101197.13;4874455;29;20499;-72
2022/06/29 10:03:14;;;;;;;4.20;1.60;;;;;;;23.90;45.24;101184.50;4860257;29;20069;-68
2022/06/29 10:05:54;;;;;;;7.03;1.85;;;;;;;23.98;44.50;101192.03;4868307;29;20032;-72
2022/06/29 10:08:20;;;;;;;2.33;1.35;;;;;;;23.98;42.91;101188.47;4897699;29;20086;-70
2022/06/29 10:10:56;;;;;;;3.20;1.35;;;;;;;23.96;44.26;101193.47;4879926;29;20041;-69
2022/06/29 10:13:42;;;;;;;1.80;1.20;;;;;;;24.03;46.06;101191.94;4858886;29;20041;-68
2022/06/29 10:16:23;;;;;;;4.93;1.25;;;;;;;24.19;45.96;101186.91;4879767;29;20037;-70
2022/06/29 10:19:25;;;;;;;3.08;1.70;;;;;;;24.22;44.45;101189.06;4883354;29;20036;-69
2022/06/29 10:21:51;;;;;;;4.22;1.15;;;;;;;24.34;42.58;101176.66;4874064;29;20075;-66
2022/06/29 10:24:19;;;;;;;3.20;1.50;;;;;;;24.49;45.10;101173.53;4859924;29;20139;-70
2022/06/29 10:26:46;;;;;;;3.53;1.30;;;;;;;24.49;43.21;101173.53;4881776;29;20488;-69
2022/06/29 10:29:20;;;;;;;2.88;1.40;;;;;;;24.51;44.47;101170.47;4898650;29;20048;-72
2022/06/29 10:31:56;;;;;;;3.72;1.20;;;;;;;24.63;45.34;101173.53;4900825;29;20045;-71
2022/06/29 10:34:31;;;;;;;4.70;1.20;;;;;;;24.70;44.08;101167.53;4897423;29;20101;-68
2022/06/29 10:37:14;;;;;;;2.03;0.90;;;;;;;24.83;42.49;101166.66;4909746;29;20032;-72
2022/06/29 10:39:48;;;;;;;5.18;1.50;;;;;;;24.78;42.62;101175.09;4916237;29;20115;-74
2022/06/29 10:45:19;;;;;;;3.10;1.20;;;;;;;24.69;42.46;101163.97;4898550;29;20079;-71
2022/06/29 10:47:54;;;;;;;3.75;1.00;;;;;;;24.61;42.53;101152.81;4906719;29;20032;-72
2022/06/29 10:50:23;;;;;;;1.50;1.20;;;;;;;24.52;43.72;101155.50;4899927;29;20447;-71
2022/06/29 10:52:50;;;;;;;3.42;1.40;;;;;;;24.42;43.35;101145.47;4898586;29;20476;-70
2022/06/29 10:55:16;;;;;;;2.33;1.13;;;;;;;24.42;45.32;101151.00;4900309;29;20426;-70
2022/06/29 10:57:43;;;;;;;2.67;1.30;;;;;;;24.49;45.75;101150.56;4919407;29;20111;-69
2022/06/29 11:00:15;;;;;;;4.07;1.50;;;;;;;24.63;48.12;101150.56;4901499;29;20179;-73
2022/06/29 11:02:42;;;;;;;2.45;1.30;;;;;;;24.61;45.99;101147.28;4897242;29;20073;-69
2022/06/29 11:05:08;;;;;;;2.05;1.20;;;;;;;24.56;43.74;101146.28;4900379;29;20123;-69
2022/06/29 11:13:02;;;;;;;3.25;1.30;;;;;;;24.40;45.95;101140.25;4881698;29;20584;-69
2022/06/29 11:15:42;;;;;;;4.03;1.40;;;;;;;24.39;45.91;101149.69;4882084;29;20033;-69
2022/06/29 11:18:15;;;;;;;1.63;1.27;;;;;;;24.39;47.28;101137.81;4919196;29;20032;-69
2022/06/29 11:20:43;;;;;;;4.30;1.48;;;;;;;24.46;45.19;101145.66;4914292;29;20396;-69
2022/06/29 11:23:12;;;;;;;2.90;1.48;;;;;;;24.63;45.66;101133.97;4900228;29;20028;-69
2022/06/29 11:25:46;;;;;;;5.00;1.33;;;;;;;24.71;47.84;101136.78;4914018;29;20521;-69
2022/06/29 11:28:13;;;;;;;2.08;1.15;;;;;;;24.82;46.10;101137.38;4918978;29;20071;-69
2022/06/29 11:30:39;;;;;;;5.60;1.58;;;;;;;24.88;44.91;101133.34;4914248;29;20139;-69
2022/06/29 11:33:10;;;;;;;2.70;1.48;;;;;;;24.90;46.18;101128.31;4883128;29;20033;-70
2022/06/29 11:35:36;;;;;;;;;;;;;;;24.94;47.32;101128.47;4899960;29;20032;-70
2022/06/29 11:38:02;;;;;;;5.55;1.60;;;;;;;25.09;44.22;101130.88;4899901;29;20367;-69
2022/06/29 11:40:34;;;;;;;3.35;1.30;;;;;;;25.20;45.28;101125.88;4899259;29;20028;-69